Uitgeest, Netherlands
Current Conditions -  °F | °C
As of 6:25 AM on Saturday 25 Oct 2014 (Local Time) from EHAM Reporting Station
Scattered Clouds Scattered Clouds  
Wind Chill: 54°   Ceiling: Unl
Heat Index: 54°   Visibility: 6mi
Dew Point: 54°   Wind: 5mph
Humidity: 100%   Direction: 240°WSW
Pressure: 29.97"   Gusts: NA
Location:  52.53°N, 4.71°E
Report Text: EHAM 250425Z 24004KT 9999 FEW010 SCT040 12/12 Q1015 NOSIG
Loading
Personal Weather Stations






























Interactive Weather Map
Tropical Storm Tracking
New forecast layout! Learn more

10-Day Weather Forecast

Advertisements
Track Severe Weather on mobile